Time;durP1;ratioP1;P1;durP2;ratioP2;P2;SDS_P1;SDS_P2;PMS_P1;PMS_P2;Temp;Humidity;BMP_temperature;BMP_pressure;BME280_temperature;BME280_humidity;BME280_pressure;Samples;Min_cycle;Max_cycle;Signal;HPM_P1;HPM_P2
2022/12/30 00:01:03;;;;;;;25.92;2.65;;;6.70;99.90;;;;;;5017739;28;20033;-74
2022/12/30 00:03:29;;;;;;;15.82;2.13;;;6.70;99.90;;;;;;5015531;28;20029;-74
2022/12/30 00:05:54;;;;;;;16.30;2.70;;;6.70;99.90;;;;;;5011763;28;20033;-74
2022/12/30 00:11:04;;;;;;;15.32;2.40;;;6.80;99.90;;;;;;5017098;28;20048;-74
2022/12/30 00:34:14;;;;;;;14.48;1.80;;;7.40;99.90;;;;;;5003855;28;20076;-73
2022/12/30 00:36:40;;;;;;;24.27;2.28;;;7.50;99.90;;;;;;5017023;28;20342;-73
2022/12/30 00:39:05;;;;;;;16.45;1.73;;;7.40;99.90;;;;;;5017694;28;20072;-74
2022/12/30 00:44:15;;;;;;;14.27;1.60;;;7.50;99.90;;;;;;5018436;28;20310;-74
2022/12/30 00:46:43;;;;;;;16.38;1.85;;;7.60;99.90;;;;;;5017386;28;20025;-75
2022/12/30 00:57:21;;;;;;;17.85;2.40;;;8.50;99.90;;;;;;5015560;28;20052;-74
2022/12/30 00:59:47;;;;;;;10.85;2.28;;;8.60;99.90;;;;;;5018851;28;20033;-74
2022/12/30 01:02:12;;;;;;;20.27;2.70;;;8.70;99.90;;;;;;4996442;28;20041;-74
2022/12/30 01:04:38;;;;;;;17.48;2.50;;;8.80;99.90;;;;;;5015121;28;20104;-74
2022/12/30 01:07:03;;;;;;;18.65;2.10;;;8.80;99.90;;;;;;4982733;28;20769;-73
2022/12/30 01:09:29;;;;;;;20.00;3.55;;;8.80;99.90;;;;;;5017069;28;20134;-74
2022/12/30 01:12:10;;;;;;;16.75;2.03;;;8.70;99.90;;;;;;5014836;28;20029;-73
2022/12/30 01:14:39;;;;;;;10.97;1.77;;;8.80;99.90;;;;;;4998188;28;20038;-74
2022/12/30 01:17:06;;;;;;;17.05;2.50;;;8.90;99.90;;;;;;4996449;28;20115;-73
2022/12/30 01:19:32;;;;;;;16.23;2.30;;;8.90;99.90;;;;;;5020113;28;20037;-74
2022/12/30 01:21:57;;;;;;;16.80;1.85;;;8.90;99.90;;;;;;5019657;28;20026;-74
2022/12/30 01:24:23;;;;;;;21.40;2.30;;;9.00;99.90;;;;;;5021329;28;20608;-73
2022/12/30 01:26:49;;;;;;;18.95;2.40;;;8.90;99.90;;;;;;5017737;28;20044;-74
2022/12/30 01:29:23;;;;;;;24.95;2.30;;;8.80;99.90;;;;;;5020808;28;20013;-73
2022/12/30 01:31:49;;;;;;;21.92;2.20;;;8.90;99.90;;;;;;5021677;28;20404;-74
2022/12/30 01:34:15;;;;;;;18.42;2.15;;;8.80;99.90;;;;;;5019357;28;20124;-74
2022/12/30 01:36:40;;;;;;;21.95;2.13;;;8.80;99.90;;;;;;5018194;28;20037;-74
2022/12/30 01:39:06;;;;;;;14.30;1.80;;;8.80;99.90;;;;;;5019193;28;20490;-73
2022/12/30 01:41:31;;;;;;;14.25;2.08;;;8.70;99.90;;;;;;5001530;28;20046;-74
2022/12/30 01:43:57;;;;;;;22.48;1.77;;;8.80;99.90;;;;;;5019660;28;20117;-74
2022/12/30 01:46:26;;;;;;;19.27;2.50;;;8.80;99.90;;;;;;5019762;28;20121;-74
2022/12/30 01:48:54;;;;;;;19.35;1.85;;;8.80;99.90;;;;;;5002723;28;20371;-73
2022/12/30 01:51:26;;;;;;;15.73;2.08;;;8.80;99.90;;;;;;5019203;28;20043;-73
2022/12/30 01:53:54;;;;;;;17.27;2.45;;;8.70;99.90;;;;;;4998833;28;20903;-73
2022/12/30 01:56:40;;;;;;;13.50;1.52;;;8.70;99.90;;;;;;5017216;28;20112;-74
2022/12/30 01:59:13;;;;;;;23.58;3.00;;;8.70;99.90;;;;;;5002409;28;20558;-73
2022/12/30 02:01:39;;;;;;;12.13;2.60;;;8.70;99.90;;;;;;5017969;28;20203;-74
2022/12/30 02:04:08;;;;;;;17.17;2.25;;;8.70;99.90;;;;;;5018887;28;20115;-74
2022/12/30 02:06:49;;;;;;;28.70;2.60;;;8.60;99.90;;;;;;4999015;28;20489;-73
2022/12/30 02:09:14;;;;;;;15.38;2.00;;;8.60;99.90;;;;;;5001974;28;20060;-74
2022/12/30 02:11:40;;;;;;;17.20;2.15;;;8.60;99.90;;;;;;5018889;28;20184;-73
2022/12/30 02:14:06;;;;;;;22.33;2.55;;;8.70;99.90;;;;;;5019640;28;20500;-74
2022/12/30 02:16:58;;;;;;;16.83;2.20;;;8.80;99.90;;;;;;4997544;28;20408;-74
2022/12/30 02:19:42;;;;;;;15.30;2.60;;;8.80;99.90;;;;;;5004346;28;20048;-73
2022/12/30 02:22:34;;;;;;;20.70;2.60;;;8.70;99.90;;;;;;5019659;28;20460;-74
2022/12/30 02:25:37;;;;;;;19.88;2.50;;;8.70;99.90;;;;;;4980708;28;20477;-73
2022/12/30 02:28:26;;;;;;;12.13;2.13;;;8.60;99.90;;;;;;5019002;28;20041;-73
2022/12/30 02:31:13;;;;;;;15.45;2.30;;;8.60;99.90;;;;;;5017084;28;20034;-74
2022/12/30 02:34:03;;;;;;;25.27;2.90;;;8.60;99.90;;;;;;5008678;28;20487;-74
2022/12/30 02:36:45;;;;;;;20.63;2.93;;;8.60;99.90;;;;;;5015263;28;20350;-74
2022/12/30 02:39:26;;;;;;;;;;;8.70;99.90;;;;;;5018677;28;20302;-74
2022/12/30 02:45:09;;;;;;;16.58;2.00;;;8.70;99.90;;;;;;5019876;28;20060;-73
2022/12/30 02:47:51;;;;;;;20.00;2.58;;;8.80;99.90;;;;;;5021192;28;20632;-74
2022/12/30 02:53:13;;;;;;;26.67;2.90;;;8.80;99.90;;;;;;5007135;28;20028;-74
2022/12/30 02:55:39;;;;;;;23.40;2.65;;;8.80;99.90;;;;;;5015630;28;20041;-74
2022/12/30 02:58:05;;;;;;;18.30;3.28;;;8.70;99.90;;;;;;5011010;28;20350;-74
2022/12/30 03:04:01;;;;;;;18.48;2.30;;;8.70;99.90;;;;;;5021029;28;20060;-73
2022/12/30 03:06:52;;;;;;;20.13;2.85;;;8.70;99.90;;;;;;4996537;28;20030;-73
2022/12/30 03:09:38;;;;;;;11.50;1.98;;;8.70;99.90;;;;;;4996327;28;20033;-73
2022/12/30 03:12:25;;;;;;;20.40;2.50;;;8.60;99.90;;;;;;5020504;28;20091;-74
2022/12/30 03:14:56;;;;;;;14.73;1.70;;;8.60;99.90;;;;;;5019156;28;20024;-74
2022/12/30 03:17:29;;;;;;;17.13;2.20;;;8.60;99.90;;;;;;5014149;28;20036;-74
2022/12/30 03:19:59;;;;;;;14.45;1.88;;;8.60;99.90;;;;;;5008861;28;20659;-74
2022/12/30 03:28:04;;;;;;;15.45;2.08;;;8.50;99.90;;;;;;5019276;28;20091;-74
2022/12/30 03:30:32;;;;;;;10.88;1.92;;;8.60;99.90;;;;;;5019388;28;20384;-74
2022/12/30 03:32:58;;;;;;;12.48;1.77;;;8.60;99.90;;;;;;5019177;28;20035;-74
2022/12/30 03:35:25;;;;;;;19.08;2.60;;;8.60;99.90;;;;;;5012490;28;20037;-74
2022/12/30 03:37:55;;;;;;;17.75;3.13;;;8.60;99.90;;;;;;5014266;28;20030;-73
2022/12/30 03:40:30;;;;;;;11.88;1.42;;;8.70;99.90;;;;;;4999856;28;20037;-73
2022/12/30 03:42:56;;;;;;;14.63;1.50;;;8.70;99.90;;;;;;5010819;28;20053;-73
2022/12/30 03:45:22;;;;;;;16.80;2.47;;;8.60;99.90;;;;;;5001097;28;20120;-73
2022/12/30 03:47:48;;;;;;;18.50;2.35;;;8.60;99.90;;;;;;5002301;28;20483;-73
2022/12/30 03:50:14;;;;;;;15.55;1.85;;;8.70;99.90;;;;;;5019252;28;20473;-72
2022/12/30 03:52:39;;;;;;;12.63;1.83;;;8.70;99.90;;;;;;5020455;28;20075;-72
2022/12/30 03:55:06;;;;;;;10.35;1.77;;;8.70;99.90;;;;;;5019454;28;20053;-72
2022/12/30 03:57:32;;;;;;;12.55;1.85;;;8.70;99.90;;;;;;5020031;28;20033;-73
2022/12/30 03:59:58;;;;;;;13.93;1.77;;;8.70;99.90;;;;;;4995458;28;20132;-73
2022/12/30 04:02:23;;;;;;;11.43;2.22;;;8.70;99.90;;;;;;5001748;28;20117;-73
2022/12/30 04:04:49;;;;;;;10.50;1.40;;;8.70;99.90;;;;;;5001111;28;20063;-73
2022/12/30 04:07:15;;;;;;;13.15;1.92;;;8.70;99.90;;;;;;5018419;28;20325;-73
2022/12/30 04:09:40;;;;;;;16.95;2.13;;;8.60;99.90;;;;;;5017522;28;20285;-72
2022/12/30 04:12:06;;;;;;;13.70;1.58;;;8.70;99.90;;;;;;4998746;28;20039;-72
2022/12/30 04:14:32;;;;;;;18.13;1.50;;;8.70;99.90;;;;;;5000627;28;20882;-73
2022/12/30 04:16:57;;;;;;;10.73;1.95;;;8.90;99.90;;;;;;5018141;28;20756;-73
2022/12/30 04:19:23;;;;;;;8.85;1.38;;;8.90;99.90;;;;;;5019725;28;20105;-72
2022/12/30 04:21:49;;;;;;;13.45;2.05;;;8.90;99.90;;;;;;5001096;28;20250;-73
2022/12/30 04:24:14;;;;;;;18.20;3.05;;;8.80;99.90;;;;;;5019231;28;20021;-72
2022/12/30 04:26:40;;;;;;;11.23;1.65;;;8.80;99.90;;;;;;4999883;28;20037;-73
2022/12/30 04:29:06;;;;;;;13.15;1.35;;;8.80;99.90;;;;;;4989940;28;20041;-72
2022/12/30 04:31:32;;;;;;;13.13;2.20;;;8.80;99.90;;;;;;5018322;28;20476;-72
2022/12/30 04:33:58;;;;;;;17.65;1.90;;;8.70;99.90;;;;;;5018249;28;20055;-73
2022/12/30 04:36:23;;;;;;;14.75;1.77;;;8.70;99.90;;;;;;5018516;28;20029;-72
2022/12/30 04:38:49;;;;;;;15.82;3.17;;;8.60;99.90;;;;;;5019616;28;20041;-73
2022/12/30 04:41:17;;;;;;;13.88;2.15;;;8.60;99.90;;;;;;5018658;28;20500;-73
2022/12/30 04:43:43;;;;;;;14.02;2.50;;;8.60;99.90;;;;;;4999687;28;20049;-72
2022/12/30 04:46:09;;;;;;;14.70;2.03;;;8.60;99.90;;;;;;5018198;28;20081;-73
2022/12/30 04:48:34;;;;;;;14.82;2.03;;;8.60;99.90;;;;;;5018204;28;20113;-73
2022/12/30 04:51:00;;;;;;;14.80;2.05;;;8.60;99.90;;;;;;5000943;28;20047;-73
2022/12/30 04:53:25;;;;;;;11.38;1.80;;;8.50;99.90;;;;;;5021562;28;20037;-73
2022/12/30 04:55:54;;;;;;;21.92;2.53;;;8.50;99.90;;;;;;5022351;28;20044;-73
2022/12/30 04:58:20;;;;;;;11.38;2.10;;;8.50;99.90;;;;;;5023199;28;20123;-73
2022/12/30 05:00:47;;;;;;;11.05;2.03;;;8.40;99.90;;;;;;5023205;28;20645;-72
2022/12/30 05:03:13;;;;;;;16.40;1.70;;;8.50;99.90;;;;;;5022585;28;20129;-72
2022/12/30 05:05:38;;;;;;;15.10;1.92;;;8.50;99.90;;;;;;5019909;28;20040;-72
2022/12/30 05:08:04;;;;;;;20.38;2.25;;;8.50;99.90;;;;;;5022430;28;20378;-73
2022/12/30 05:10:32;;;;;;;19.42;2.45;;;8.60;99.90;;;;;;5022552;28;20044;-73
2022/12/30 05:12:58;;;;;;;12.00;1.83;;;8.60;99.90;;;;;;5022404;28;20511;-73
2022/12/30 05:15:23;;;;;;;15.95;1.85;;;8.60;99.90;;;;;;5004472;28;20037;-73
2022/12/30 05:17:49;;;;;;;15.40;2.20;;;8.70;99.90;;;;;;5004733;28;20430;-72
2022/12/30 05:20:14;;;;;;;18.23;2.63;;;8.80;99.90;;;;;;5020929;28;20348;-73
2022/12/30 05:22:40;;;;;;;14.63;2.63;;;8.80;99.90;;;;;;5021407;28;20402;-73
2022/12/30 05:27:50;;;;;;;17.88;2.55;;;8.90;99.90;;;;;;5019947;28;20044;-73
2022/12/30 05:30:17;;;;;;;13.90;1.88;;;9.00;99.90;;;;;;5019312;28;20037;-73
2022/12/30 05:32:43;;;;;;;15.50;2.50;;;9.00;99.90;;;;;;5020252;28;20068;-73
2022/12/30 05:35:09;;;;;;;18.77;2.65;;;9.00;99.90;;;;;;5020763;28;20066;-73
2022/12/30 05:37:34;;;;;;;21.73;2.70;;;9.10;99.90;;;;;;5019995;28;20400;-73
2022/12/30 05:40:00;;;;;;;18.00;2.20;;;9.10;99.90;;;;;;5021395;28;20106;-73
2022/12/30 05:42:25;;;;;;;28.95;2.83;;;9.10;99.90;;;;;;5020069;28;20490;-73
2022/12/30 05:44:51;;;;;;;10.77;2.05;;;9.20;99.90;;;;;;5019408;28;20394;-72
2022/12/30 05:47:16;;;;;;;13.60;2.10;;;9.20;99.90;;;;;;5002432;28;20133;-72
2022/12/30 05:49:42;;;;;;;14.90;2.10;;;9.20;99.90;;;;;;5019620;28;20037;-73
2022/12/30 05:52:08;;;;;;;15.07;1.98;;;9.20;99.90;;;;;;5019524;28;20175;-73
2022/12/30 05:54:33;;;;;;;19.42;2.38;;;9.30;99.90;;;;;;5019817;28;20029;-72
2022/12/30 05:56:59;;;;;;;11.73;2.08;;;9.30;99.90;;;;;;5018707;28;20029;-72
2022/12/30 05:59:24;;;;;;;18.10;3.05;;;9.30;99.90;;;;;;5020706;28;20041;-73
2022/12/30 06:01:50;;;;;;;17.42;3.15;;;9.30;99.90;;;;;;5020232;28;20445;-72
2022/12/30 06:04:17;;;;;;;11.82;2.33;;;9.30;99.90;;;;;;5019598;28;20136;-73
2022/12/30 06:06:43;;;;;;;10.45;2.83;;;9.30;99.90;;;;;;5020757;28;20034;-73
2022/12/30 06:09:09;;;;;;;19.98;2.63;;;9.30;99.90;;;;;;5020344;28;20033;-73
2022/12/30 06:11:35;;;;;;;23.17;2.70;;;9.30;99.90;;;;;;5021816;28;20033;-73
2022/12/30 06:14:00;;;;;;;21.00;2.42;;;9.30;99.90;;;;;;5020890;28;20037;-73
2022/12/30 06:16:26;;;;;;;16.80;1.88;;;9.30;99.90;;;;;;5001535;28;20041;-73
2022/12/30 06:18:51;;;;;;;20.33;2.03;;;9.30;99.90;;;;;;5020915;28;20037;-72
2022/12/30 06:21:17;;;;;;;14.70;2.30;;;9.30;99.90;;;;;;5005665;28;20036;-73
2022/12/30 06:23:43;;;;;;;15.93;2.25;;;9.30;99.90;;;;;;5020905;28;20432;-72
2022/12/30 06:26:08;;;;;;;26.63;2.50;;;9.30;99.90;;;;;;5020120;28;20108;-73
2022/12/30 06:28:34;;;;;;;15.73;2.13;;;9.30;99.90;;;;;;5021476;28;20035;-73
2022/12/30 06:31:00;;;;;;;10.82;1.40;;;9.30;99.90;;;;;;5022804;28;20417;-72
2022/12/30 06:33:25;;;;;;;17.95;2.10;;;9.30;99.90;;;;;;5021307;28;20434;-73
2022/12/30 06:35:51;;;;;;;12.38;1.77;;;9.30;99.90;;;;;;5019668;28;20109;-73
2022/12/30 06:38:17;;;;;;;12.55;2.00;;;9.30;99.90;;;;;;5021415;28;20450;-73
2022/12/30 06:40:44;;;;;;;16.85;2.33;;;9.40;99.90;;;;;;5020653;28;20037;-73
2022/12/30 06:43:10;;;;;;;18.17;2.10;;;9.40;99.90;;;;;;5021189;28;20046;-72
2022/12/30 06:45:36;;;;;;;18.15;2.47;;;9.40;99.90;;;;;;5020390;28;20132;-73
2022/12/30 06:48:03;;;;;;;17.98;2.22;;;9.30;99.90;;;;;;5020090;28;20053;-73
2022/12/30 06:50:29;;;;;;;15.82;2.30;;;9.40;99.90;;;;;;5019358;28;20028;-73
2022/12/30 06:52:54;;;;;;;11.55;1.63;;;9.30;99.90;;;;;;5020821;28;20117;-72
2022/12/30 06:55:21;;;;;;;13.63;1.85;;;9.30;99.90;;;;;;5002129;28;20032;-73
2022/12/30 06:57:48;;;;;;;18.05;1.77;;;9.30;99.90;;;;;;5020795;28;20113;-73
2022/12/30 07:00:14;;;;;;;18.00;1.83;;;9.40;99.90;;;;;;5020197;28;20080;-73
2022/12/30 07:02:40;;;;;;;17.27;2.50;;;9.40;99.90;;;;;;5021590;28;20065;-72
2022/12/30 07:05:06;;;;;;;18.85;2.35;;;9.40;99.90;;;;;;5019971;28;20056;-73
2022/12/30 07:07:32;;;;;;;11.45;2.00;;;9.40;99.90;;;;;;5019252;28;20496;-72
2022/12/30 07:09:58;;;;;;;21.60;3.28;;;9.50;99.90;;;;;;5020842;28;20041;-73
2022/12/30 07:12:23;;;;;;;23.70;2.65;;;9.50;99.90;;;;;;4987913;28;20120;-72
2022/12/30 07:14:49;;;;;;;19.92;2.08;;;9.50;99.90;;;;;;4999869;28;20137;-73
2022/12/30 07:17:15;;;;;;;16.13;2.67;;;9.50;99.90;;;;;;5020583;28;20029;-72
2022/12/30 07:19:40;;;;;;;12.70;2.17;;;9.50;99.90;;;;;;5020517;28;20042;-73
2022/12/30 07:22:06;;;;;;;19.73;2.40;;;9.50;99.90;;;;;;5019387;28;20028;-73
2022/12/30 07:24:32;;;;;;;16.48;2.30;;;9.60;99.90;;;;;;5018344;28;20101;-74
2022/12/30 07:26:57;;;;;;;19.52;2.38;;;9.60;99.90;;;;;;5019515;28;20102;-73
2022/12/30 07:29:23;;;;;;;18.48;2.70;;;9.60;99.90;;;;;;5020765;28;20018;-73
2022/12/30 07:31:48;;;;;;;18.80;2.05;;;9.50;99.90;;;;;;5018636;28;20060;-73
2022/12/30 07:34:14;;;;;;;22.13;2.92;;;9.30;99.90;;;;;;5017876;28;20034;-72
2022/12/30 07:36:40;;;;;;;16.83;2.78;;;9.30;99.90;;;;;;5017924;28;20025;-72
2022/12/30 07:39:06;;;;;;;20.48;2.95;;;9.20;99.90;;;;;;5014233;28;20049;-74
2022/12/30 07:41:33;;;;;;;22.95;2.88;;;9.10;99.90;;;;;;5020382;28;20529;-73
2022/12/30 07:43:58;;;;;;;23.10;2.78;;;9.00;99.90;;;;;;5011708;28;20131;-79
2022/12/30 07:46:24;;;;;;;24.98;2.30;;;9.00;99.90;;;;;;4995184;28;20616;-73
2022/12/30 07:48:49;;;;;;;17.67;2.50;;;9.00;99.90;;;;;;5013909;28;20037;-73
2022/12/30 07:51:16;;;;;;;19.70;2.85;;;8.90;99.90;;;;;;5013499;28;20045;-73
2022/12/30 07:53:42;;;;;;;20.83;2.60;;;8.90;99.90;;;;;;5013327;28;20315;-74
2022/12/30 07:56:10;;;;;;;27.00;3.45;;;8.90;99.90;;;;;;5012834;28;20041;-73
2022/12/30 07:58:36;;;;;;;21.00;2.47;;;8.80;99.90;;;;;;4999413;28;20066;-74
2022/12/30 08:01:10;;;;;;;20.40;2.97;;;8.80;99.90;;;;;;5014103;28;20031;-73
2022/12/30 08:03:36;;;;;;;24.10;2.58;;;8.70;99.90;;;;;;5016012;28;20036;-73
2022/12/30 08:06:07;;;;;;;19.90;2.83;;;8.70;99.90;;;;;;5019899;28;20485;-73
2022/12/30 08:08:33;;;;;;;;;;;8.70;99.90;;;;;;5000556;28;20424;-72
2022/12/30 08:11:00;;;;;;;17.63;2.75;;;8.70;99.90;;;;;;4997688;28;19968;-72
2022/12/30 08:13:26;;;;;;;18.60;3.33;;;8.70;99.90;;;;;;5014449;28;20034;-73
2022/12/30 08:15:51;;;;;;;24.02;3.00;;;8.70;99.90;;;;;;5019813;28;20052;-72
2022/12/30 08:18:17;;;;;;;22.45;2.65;;;8.70;99.90;;;;;;5019589;28;20541;-72
2022/12/30 08:20:43;;;;;;;15.07;2.83;;;8.70;99.90;;;;;;5018774;28;20067;-73
2022/12/30 08:23:08;;;;;;;18.00;2.70;;;8.70;99.90;;;;;;4996883;28;20410;-72
2022/12/30 08:25:34;;;;;;;17.25;2.58;;;8.70;99.90;;;;;;4988784;28;20394;-72
2022/12/30 08:28:00;;;;;;;21.77;2.90;;;8.60;99.90;;;;;;5012767;28;20107;-72
2022/12/30 08:30:26;;;;;;;16.10;2.30;;;8.60;99.90;;;;;;5013767;28;20104;-72
2022/12/30 08:32:52;;;;;;;23.92;3.17;;;8.60;99.90;;;;;;4987714;28;20120;-72
2022/12/30 08:35:18;;;;;;;20.25;2.60;;;8.60;99.90;;;;;;5011571;28;20117;-72
2022/12/30 08:37:43;;;;;;;16.25;2.97;;;8.60;99.90;;;;;;5000836;28;20497;-71
2022/12/30 08:40:10;;;;;;;13.38;2.63;;;8.60;99.90;;;;;;5020348;28;20088;-72
2022/12/30 08:42:37;;;;;;;19.60;2.47;;;8.60;99.90;;;;;;5019360;28;20041;-72
2022/12/30 08:45:04;;;;;;;17.92;2.95;;;8.60;99.90;;;;;;5019807;28;20125;-72
2022/12/30 08:47:30;;;;;;;16.27;2.58;;;8.60;99.90;;;;;;5018163;28;20064;-72
2022/12/30 08:49:55;;;;;;;24.70;2.42;;;8.60;99.90;;;;;;5002125;28;20057;-72
2022/12/30 08:52:21;;;;;;;18.05;2.55;;;8.60;99.90;;;;;;5019554;28;20510;-72
2022/12/30 08:54:46;;;;;;;13.93;2.60;;;8.60;99.90;;;;;;5000883;28;20135;-72
2022/12/30 08:57:12;;;;;;;16.52;2.45;;;8.70;99.90;;;;;;5017372;28;20457;-71
2022/12/30 08:59:38;;;;;;;14.95;2.03;;;8.70;99.90;;;;;;5019162;28;20124;-72
2022/12/30 09:02:05;;;;;;;18.25;2.47;;;8.70;99.90;;;;;;5001847;28;20116;-72
2022/12/30 09:04:31;;;;;;;15.20;1.90;;;8.70;99.90;;;;;;4999362;28;20033;-72
2022/12/30 09:06:56;;;;;;;21.30;2.80;;;8.70;99.90;;;;;;4997992;28;20091;-72
2022/12/30 09:09:22;;;;;;;14.30;2.15;;;8.80;99.90;;;;;;5019332;28;20037;-72
2022/12/30 09:11:47;;;;;;;23.42;3.30;;;8.80;99.90;;;;;;5011657;28;20549;-72
2022/12/30 09:14:14;;;;;;;16.48;2.00;;;8.80;99.90;;;;;;5014293;28;20037;-72
2022/12/30 09:16:40;;;;;;;18.73;2.40;;;8.80;99.90;;;;;;5015658;28;20139;-72
2022/12/30 09:19:06;;;;;;;15.35;2.15;;;8.80;99.90;;;;;;5016051;28;20484;-73
2022/12/30 09:21:32;;;;;;;16.92;2.58;;;8.80;99.90;;;;;;5011723;28;20048;-73
2022/12/30 09:23:57;;;;;;;12.65;2.08;;;8.80;99.90;;;;;;4993357;28;20025;-74
2022/12/30 09:26:25;;;;;;;33.33;2.65;;;8.80;99.90;;;;;;5013282;28;20086;-73
2022/12/30 09:28:51;;;;;;;16.25;2.78;;;8.80;99.90;;;;;;5012268;28;20032;-74
2022/12/30 09:31:17;;;;;;;19.05;2.75;;;8.80;99.90;;;;;;5018324;28;20030;-73
2022/12/30 09:33:42;;;;;;;12.63;2.15;;;8.80;99.90;;;;;;5009866;28;20397;-73
2022/12/30 09:36:08;;;;;;;14.68;2.13;;;8.80;99.90;;;;;;5014021;28;20112;-73
2022/12/30 09:38:34;;;;;;;11.13;1.75;;;8.80;99.90;;;;;;5017391;28;20044;-73
2022/12/30 09:41:09;;;;;;;9.65;1.77;;;8.80;99.90;;;;;;5020008;28;20039;-73
2022/12/30 09:43:47;;;;;;;13.18;2.17;;;8.80;99.90;;;;;;5022337;28;20126;-72
2022/12/30 09:46:27;;;;;;;9.55;2.20;;;8.80;99.90;;;;;;4995947;28;20021;-73
2022/12/30 09:49:04;;;;;;;11.07;1.92;;;8.80;99.90;;;;;;5018394;28;20355;-73
2022/12/30 09:51:44;;;;;;;11.82;1.90;;;8.90;99.90;;;;;;5016115;28;20064;-74
2022/12/30 09:54:17;;;;;;;18.23;2.03;;;8.90;99.90;;;;;;5022388;28;20108;-74
2022/12/30 09:56:46;;;;;;;9.07;1.20;;;9.00;99.90;;;;;;5020045;28;20095;-73
2022/12/30 09:59:13;;;;;;;12.10;1.63;;;8.90;99.90;;;;;;5022390;28;20476;-72
2022/12/30 10:02:03;;;;;;;17.30;2.05;;;9.00;99.90;;;;;;5021997;28;20033;-72
2022/12/30 10:04:35;;;;;;;18.85;2.05;;;9.10;99.90;;;;;;5018732;28;20060;-72
2022/12/30 10:07:17;;;;;;;20.60;2.45;;;9.10;99.90;;;;;;5018585;28;20053;-72
2022/12/30 10:09:48;;;;;;;;;;;9.10;99.90;;;;;;5012863;28;20525;-73
2022/12/30 10:12:39;;;;;;;32.72;3.35;;;9.20;99.90;;;;;;5010379;28;19949;-72
2022/12/30 10:15:20;;;;;;;24.63;2.55;;;9.20;99.90;;;;;;5015946;28;20033;-72
2022/12/30 10:17:54;;;;;;;22.25;2.78;;;9.20;99.90;;;;;;5017219;28;20130;-74
2022/12/30 10:20:44;;;;;;;20.20;2.20;;;9.30;99.90;;;;;;5012892;28;20041;-72
2022/12/30 10:23:27;;;;;;;25.42;2.63;;;9.50;99.90;;;;;;5017496;28;20350;-73
2022/12/30 10:26:15;;;;;;;17.75;3.70;;;9.60;99.90;;;;;;4989105;28;20029;-72
2022/12/30 10:29:05;;;;;;;21.77;2.60;;;9.70;99.90;;;;;;5015053;28;20107;-72
2022/12/30 10:31:34;;;;;;;19.60;1.90;;;9.80;99.90;;;;;;5020576;28;20108;-72
2022/12/30 10:34:11;;;;;;;16.65;2.38;;;9.90;99.90;;;;;;5021851;28;20036;-72
2022/12/30 10:36:50;;;;;;;18.00;1.90;;;10.10;99.90;;;;;;5015600;28;20095;-72
2022/12/30 10:39:25;;;;;;;13.20;1.67;;;10.20;99.90;;;;;;5017183;28;20566;-72
2022/12/30 10:42:04;;;;;;;21.80;2.45;;;10.20;99.90;;;;;;5019229;28;20386;-72
2022/12/30 10:44:45;;;;;;;20.08;1.80;;;10.40;99.90;;;;;;5020326;28;20066;-72
2022/12/30 10:47:26;;;;;;;19.45;3.08;;;10.50;99.90;;;;;;5015271;28;20037;-72
2022/12/30 10:50:30;;;;;;;12.13;1.70;;;10.50;99.90;;;;;;5016845;28;20360;-72
2022/12/30 10:52:57;;;;;;;12.93;1.52;;;10.50;99.90;;;;;;4969973;28;20123;-72
2022/12/30 10:55:26;;;;;;;11.57;1.52;;;10.60;99.90;;;;;;5015010;28;20029;-72
2022/12/30 10:58:01;;;;;;;17.95;1.77;;;10.70;99.90;;;;;;5020235;28;20135;-72
2022/12/30 11:00:28;;;;;;;18.80;2.08;;;10.80;99.90;;;;;;5020434;28;20083;-72
2022/12/30 11:03:02;;;;;;;10.80;1.23;;;10.80;99.90;;;;;;5020142;28;20033;-72
2022/12/30 11:05:31;;;;;;;20.70;2.40;;;10.90;99.90;;;;;;5017979;28;20055;-72
2022/12/30 11:07:59;;;;;;;24.02;2.38;;;11.00;99.90;;;;;;3963820;28;10000053;-72
2022/12/30 11:10:25;;;;;;;15.38;2.03;;;11.10;99.90;;;;;;5017194;28;20725;-72
2022/12/30 11:15:53;;;;;;;17.13;1.75;;;11.20;99.90;;;;;;4319944;28;10000336;-72
2022/12/30 11:18:24;;;;;;;14.65;1.80;;;11.30;99.90;;;;;;5017090;28;20258;-72
2022/12/30 11:20:56;;;;;;;16.35;1.55;;;11.50;99.90;;;;;;5015670;28;20454;-72
2022/12/30 11:23:33;;;;;;;13.90;1.58;;;11.50;99.90;;;;;;5008511;28;20112;-72
2022/12/30 11:26:02;;;;;;;16.45;2.15;;;11.60;99.90;;;;;;5002288;28;20579;-72
2022/12/30 11:28:57;;;;;;;15.63;1.58;;;11.70;99.90;;;;;;5012269;28;20037;-72
2022/12/30 11:31:40;;;;;;;7.07;1.08;;;11.70;99.90;;;;;;5014150;28;20281;-72
2022/12/30 11:34:06;;;;;;;16.60;1.98;;;11.90;99.90;;;;;;5016758;28;20412;-73
2022/12/30 11:36:35;;;;;;;14.98;1.70;;;12.00;99.90;;;;;;5018438;28;20103;-72
2022/12/30 11:39:04;;;;;;;12.85;1.30;;;12.10;99.90;;;;;;5019650;28;20044;-72
2022/12/30 11:41:31;;;;;;;11.65;0.90;;;12.10;99.90;;;;;;5019112;28;20022;-72
2022/12/30 11:43:59;;;;;;;10.07;1.23;;;12.20;99.90;;;;;;5000507;28;20044;-72
2022/12/30 11:46:35;;;;;;;14.23;1.23;;;12.20;99.90;;;;;;5018094;28;20029;-73
2022/12/30 11:49:18;;;;;;;11.55;1.63;;;12.20;99.90;;;;;;5001883;28;20130;-71
2022/12/30 11:51:48;;;;;;;18.30;1.85;;;12.20;99.90;;;;;;5019954;28;20025;-72
2022/12/30 11:54:18;;;;;;;7.28;0.75;;;12.30;99.90;;;;;;5019702;28;20082;-71
2022/12/30 11:57:05;;;;;;;10.50;1.38;;;12.40;99.90;;;;;;5019538;28;20037;-72
2022/12/30 11:59:33;;;;;;;13.40;2.10;;;12.30;99.90;;;;;;5019600;28;20037;-73
2022/12/30 12:02:04;;;;;;;15.07;1.83;;;12.30;99.90;;;;;;4996711;28;20079;-72
2022/12/30 12:04:39;;;;;;;11.07;1.35;;;12.30;99.90;;;;;;5015929;28;20060;-72
2022/12/30 12:07:18;;;;;;;16.67;2.20;;;12.30;99.90;;;;;;5018133;28;20037;-72
2022/12/30 12:09:52;;;;;;;13.63;3.13;;;12.30;99.90;;;;;;4999545;28;20124;-72
2022/12/30 12:12:24;;;;;;;12.05;1.45;;;12.30;99.90;;;;;;5014840;28;20108;-72
2022/12/30 12:15:08;;;;;;;16.92;2.42;;;12.40;99.90;;;;;;5000984;28;20117;-74
2022/12/30 12:17:41;;;;;;;21.60;2.88;;;12.40;99.90;;;;;;5012993;28;20133;-72
2022/12/30 12:20:44;;;;;;;26.13;2.90;;;12.40;99.90;;;;;;5016006;28;20055;-72
2022/12/30 12:23:31;;;;;;;32.47;3.78;;;12.40;99.90;;;;;;5014389;28;20028;-72
2022/12/30 12:26:22;;;;;;;27.80;2.38;;;12.40;99.90;;;;;;5008200;28;20125;-72
2022/12/30 12:28:51;;;;;;;29.95;3.83;;;12.40;99.90;;;;;;5018944;28;20503;-73
2022/12/30 12:31:19;;;;;;;29.13;4.22;;;12.50;99.90;;;;;;5014643;28;20037;-73
2022/12/30 12:33:56;;;;;;;33.55;3.78;;;12.50;99.90;;;;;;5012679;28;20083;-76
2022/12/30 12:36:33;;;;;;;23.83;3.17;;;12.50;99.90;;;;;;5013114;28;20504;-72
2022/12/30 12:39:09;;;;;;;21.35;3.30;;;12.50;99.90;;;;;;5011585;28;20410;-78
2022/12/30 12:42:01;;;;;;;33.85;3.72;;;12.40;99.90;;;;;;5001724;28;20030;-71
2022/12/30 12:44:58;;;;;;;24.88;2.75;;;12.50;99.90;;;;;;5016980;28;20045;-72
2022/12/30 12:47:35;;;;;;;30.05;3.60;;;12.40;99.90;;;;;;4989778;28;20224;-71
2022/12/30 12:50:37;;;;;;;23.48;3.05;;;12.40;99.90;;;;;;5018184;28;20033;-72
2022/12/30 12:53:15;;;;;;;26.77;3.17;;;12.40;99.90;;;;;;5002235;28;20034;-72
2022/12/30 12:55:59;;;;;;;31.92;3.53;;;12.30;99.90;;;;;;5018293;28;20295;-72
2022/12/30 12:58:31;;;;;;;34.60;4.43;;;12.20;99.90;;;;;;5018810;28;20103;-72
2022/12/30 13:00:59;;;;;;;35.38;3.45;;;12.30;99.90;;;;;;4661632;28;10000291;-72
2022/12/30 13:03:27;;;;;;;36.60;5.10;;;12.40;99.90;;;;;;5002205;28;20103;-72
2022/12/30 13:06:18;;;;;;;29.35;4.32;;;12.40;99.90;;;;;;5010870;28;20034;-72
2022/12/30 13:08:44;;;;;;;44.57;4.00;;;12.40;99.90;;;;;;5013071;28;20029;-72
2022/12/30 13:11:30;;;;;;;31.23;3.17;;;12.30;99.90;;;;;;4996842;28;20457;-72
2022/12/30 13:14:04;;;;;;;39.85;4.60;;;12.20;99.90;;;;;;4994452;28;20029;-72
2022/12/30 13:16:41;;;;;;;44.35;4.63;;;12.20;99.90;;;;;;5019969;28;20029;-72
2022/12/30 13:19:13;;;;;;;41.00;4.75;;;12.20;99.90;;;;;;5017642;28;20041;-72
2022/12/30 13:21:40;;;;;;;51.35;5.05;;;12.10;99.90;;;;;;5020115;28;20617;-72
2022/12/30 13:24:07;;;;;;;49.40;5.03;;;12.10;99.90;;;;;;5019893;28;20398;-72
2022/12/30 13:26:35;;;;;;;35.00;4.03;;;12.00;99.90;;;;;;5020118;28;20036;-72
2022/12/30 13:29:02;;;;;;;36.97;3.95;;;12.00;99.90;;;;;;4671107;28;10000363;-72
2022/12/30 13:31:33;;;;;;;44.03;4.85;;;12.00;99.90;;;;;;5018628;28;20033;-72
2022/12/30 13:34:17;;;;;;;38.70;4.38;;;12.10;99.90;;;;;;5021687;28;20236;-71
2022/12/30 13:37:09;;;;;;;36.42;4.43;;;12.10;99.90;;;;;;5017853;28;20627;-72
2022/12/30 13:39:47;;;;;;;41.03;4.97;;;12.00;99.90;;;;;;5019643;28;20508;-71
2022/12/30 13:42:31;;;;;;;42.53;4.50;;;12.00;99.90;;;;;;5020480;28;20561;-72
2022/12/30 13:44:58;;;;;;;41.67;3.95;;;12.00;99.90;;;;;;5020956;28;20111;-72
2022/12/30 13:47:35;;;;;;;47.83;6.25;;;12.10;99.90;;;;;;5019538;28;20026;-72
2022/12/30 13:50:21;;;;;;;48.33;4.95;;;12.10;99.90;;;;;;4999990;28;20040;-72
2022/12/30 13:52:59;;;;;;;32.85;4.45;;;12.10;99.90;;;;;;4995585;28;20026;-72
2022/12/30 13:55:31;;;;;;;40.70;3.78;;;12.10;99.90;;;;;;5018831;28;20382;-72
2022/12/30 13:58:16;;;;;;;28.92;3.22;;;12.10;99.90;;;;;;5001337;28;20160;-72